Time;durP1;ratioP1;P1;durP2;ratioP2;P2;SDS_P1;SDS_P2;PMS_P1;PMS_P2;Temp;Humidity;BMP_temperature;BMP_pressure;BME280_temperature;BME280_humidity;BME280_pressure;Samples;Min_cycle;Max_cycle;Signal;HPM_P1;HPM_P2
2024/05/02 00:08:25;;;;;;;1.25;1.02;;;;;;;;;;5363785;26;19999;-81
2024/05/02 00:11:00;;;;;;;1.40;1.08;;;;;;;;;;5404814;26;20017;-81
2024/05/02 00:13:41;;;;;;;0.98;0.88;;;;;;;;;;5406166;26;19998;-80
2024/05/02 00:16:21;;;;;;;1.60;1.20;;;;;;;;;;5405485;26;20008;-81
2024/05/02 00:18:57;;;;;;;;;;;;;;;;;;5443114;26;19995;-81
2024/05/02 00:21:52;;;;;;;2.13;1.52;;;;;;;;;;5429160;26;19997;-81
2024/05/02 00:27:25;;;;;;;2.50;1.45;;;;;;;;;;5432429;26;19999;-80
2024/05/02 00:30:27;;;;;;;3.67;1.40;;;;;;;;;;5405975;26;20420;-80
2024/05/02 00:33:26;;;;;;;1.48;1.10;;;;;;;;;;5407091;26;20007;-82
2024/05/02 00:39:27;;;;;;;0.88;0.80;;;;;;;;;;5421188;26;20034;-81
2024/05/02 00:42:36;;;;;;;1.45;1.15;;;;;;;;;;5422573;26;20003;-80
2024/05/02 00:45:34;;;;;;;;;;;;;;;;;;;;;
2024/05/02 00:48:39;;;;;;;1.25;0.98;;;;;;;;;;5433128;26;20006;-81
2024/05/02 00:51:26;;;;;;;1.40;1.30;;;;;;;;;;5437303;26;20063;-81
2024/05/02 00:55:05;;;;;;;1.67;1.10;;;;;;;;;;5446670;26;20316;-81
2024/05/02 00:57:55;;;;;;;1.33;1.08;;;;;;;;;;5442028;26;20107;-82
2024/05/02 01:00:56;;;;;;;1.75;0.85;;;;;;;;;;5441869;26;20006;-81
2024/05/02 01:04:07;;;;;;;3.70;1.58;;;;;;;;;;5447502;26;20019;-81
2024/05/02 01:06:57;;;;;;;1.88;0.98;;;;;;;;;;5448951;26;20003;-80
2024/05/02 01:09:34;;;;;;;1.23;1.05;;;;;;;;;;5421495;26;19999;-82
2024/05/02 01:12:48;;;;;;;;;;;;;;;;;;;;;
2024/05/02 01:15:42;;;;;;;1.70;0.82;;;;;;;;;;5435593;26;19999;-81
2024/05/02 01:18:48;;;;;;;14.93;0.90;;;;;;;;;;5365904;26;20031;-80
2024/05/02 01:21:25;;;;;;;1.17;0.90;;;;;;;;;;5320558;26;20043;-81
2024/05/02 01:23:54;;;;;;;0.30;0.30;;;;;;;;;;5331560;26;20412;-82
2024/05/02 01:26:39;;;;;;;;;;;;;;;;;;;;;
2024/05/02 01:29:28;;;;;;;1.70;1.48;;;;;;;;;;5349083;26;20019;-82
2024/05/02 01:32:22;;;;;;;2.13;1.90;;;;;;;;;;5383074;26;20010;-83
2024/05/02 01:46:22;;;;;;;1.40;1.30;;;;;;;;;;5142813;27;20008;-82
2024/05/02 01:49:09;;;;;;;1.50;0.82;;;;;;;;;;5107670;27;20022;-83
2024/05/02 01:52:16;;;;;;;;;;;;;;;;;;;;;
2024/05/02 01:55:13;;;;;;;2.22;1.45;;;;;;;;;;5241327;27;19999;-81
2024/05/02 01:58:22;;;;;;;4.80;1.92;;;;;;;;;;5224096;27;20003;-80
2024/05/02 02:01:08;;;;;;;2.05;1.40;;;;;;;;;;5157778;26;20005;-80
2024/05/02 02:04:09;;;;;;;9.88;2.00;;;;;;;;;;5306582;26;20000;-81
2024/05/02 02:06:57;;;;;;;1.83;1.52;;;;;;;;;;5304783;26;20458;-80
2024/05/02 02:13:30;;;;;;;3.17;1.67;;;;;;;;;;5294790;26;20012;-81
2024/05/02 02:16:27;;;;;;;;;;;;;;;;;;;;;
2024/05/02 02:19:08;;;;;;;2.05;1.50;;;;;;;;;;5380244;26;19999;-80
2024/05/02 02:21:57;;;;;;;;;;;;;;;;;;;;;
2024/05/02 02:27:25;;;;;;;1.80;1.00;;;;;;;;;;5444271;26;20749;-80
2024/05/02 02:30:36;;;;;;;2.00;1.67;;;;;;;;;;5445482;26;20018;-81
2024/05/02 02:37:06;;;;;;;;;;;;;;;;;;;;;
2024/05/02 02:40:00;;;;;;;;;;;;;;;;;;;;;
2024/05/02 02:42:57;;;;;;;3.15;1.65;;;;;;;;;;5443719;26;20002;-82
2024/05/02 02:46:20;;;;;;;3.42;1.70;;;;;;;;;;5443530;26;20003;-81
2024/05/02 02:49:15;;;;;;;1.00;0.90;;;;;;;;;;5315822;26;20393;-80
2024/05/02 02:52:02;;;;;;;;;;;;;;;;;;;;;
2024/05/02 02:54:55;;;;;;;3.13;1.73;;;;;;;;;;5462347;26;20002;-80
2024/05/02 02:58:06;;;;;;;1.35;1.08;;;;;;;;;;5422272;26;20014;-78
2024/05/02 03:00:41;;;;;;;;;;;;;;;;;;;;;
2024/05/02 03:03:34;;;;;;;;;;;;;;;;;;;;;
2024/05/02 03:06:23;;;;;;;1.65;0.90;;;;;;;;;;5462960;26;19998;-82
2024/05/02 03:09:07;;;;;;;1.20;1.08;;;;;;;;;;5463339;26;20059;-82
2024/05/02 03:11:58;;;;;;;1.27;1.02;;;;;;;;;;5436185;26;20451;-82
2024/05/02 03:18:03;;;;;;;1.50;1.17;;;;;;;;;;5416324;26;20011;-82
2024/05/02 03:27:54;;;;;;;2.72;1.73;;;;;;;;;;5233709;27;20063;-82
2024/05/02 03:31:09;;;;;;;;;;;;;;;;;;;;;
2024/05/02 03:33:40;;;;;;;1.15;1.00;;;;;;;;;;5348223;26;20015;-79
2024/05/02 03:36:11;;;;;;;2.95;1.40;;;;;;;;;;5346700;26;20369;-81
2024/05/02 03:39:04;;;;;;;1.73;1.33;;;;;;;;;;5352613;26;20000;-81
2024/05/02 03:41:33;;;;;;;1.38;1.17;;;;;;;;;;5327539;26;20020;-79
2024/05/02 03:53:58;;;;;;;2.55;1.98;;;;;;;;;;5238671;27;20455;-82
2024/05/02 04:00:30;;;;;;;2.50;1.85;;;;;;;;;;5244308;27;20035;-82
2024/05/02 04:03:47;;;;;;;2.85;1.70;;;;;;;;;;5198507;27;20012;-80
2024/05/02 04:09:58;;;;;;;2.17;1.80;;;;;;;;;;5408969;26;20458;-80
2024/05/02 04:12:32;;;;;;;2.67;1.52;;;;;;;;;;5384430;26;20458;-76
2024/05/02 04:15:08;;;;;;;2.15;1.63;;;;;;;;;;5378145;26;20459;-82
2024/05/02 04:21:02;;;;;;;4.20;2.03;;;;;;;;;;5403048;26;20019;-80
2024/05/02 04:23:34;;;;;;;3.10;2.15;;;;;;;;;;5385069;26;20466;-79
2024/05/02 04:26:10;;;;;;;7.22;2.30;;;;;;;;;;5411012;26;19999;-78
2024/05/02 04:28:38;;;;;;;4.03;2.03;;;;;;;;;;5413485;26;20015;-80
2024/05/02 04:31:09;;;;;;;3.50;2.45;;;;;;;;;;5380939;26;20020;-79
2024/05/02 04:34:05;;;;;;;;;;;;;;;;;;;;;
2024/05/02 04:40:01;;;;;;;3.38;2.40;;;;;;;;;;5403555;26;20003;-79
2024/05/02 04:42:29;;;;;;;2.30;1.45;;;;;;;;;;5400629;26;20003;-78
2024/05/02 04:45:18;;;;;;;2.67;1.75;;;;;;;;;;5411204;26;20018;-79
2024/05/02 04:50:49;;;;;;;;;;;;;;;;;;;;;
2024/05/02 04:53:18;;;;;;;3.03;1.67;;;;;;;;;;5446757;26;19999;-80
2024/05/02 04:55:47;;;;;;;4.00;1.63;;;;;;;;;;5445594;26;20038;-81
2024/05/02 04:58:12;;;;;;;2.95;1.60;;;;;;;;;;5446773;26;20039;-78
2024/05/02 05:00:38;;;;;;;2.17;1.38;;;;;;;;;;5447828;26;20014;-79
2024/05/02 05:03:03;;;;;;;2.00;1.75;;;;;;;;;;5439306;26;20405;-80
2024/05/02 05:05:29;;;;;;;11.02;2.30;;;;;;;;;;5442348;26;20336;-79
2024/05/02 05:07:54;;;;;;;3.83;2.45;;;;;;;;;;5441252;26;20009;-80
2024/05/02 05:10:20;;;;;;;2.75;2.30;;;;;;;;;;5444349;26;19999;-80
2024/05/02 05:12:45;;;;;;;2.88;2.35;;;;;;;;;;5444630;26;20087;-81
2024/05/02 05:15:11;;;;;;;3.13;1.80;;;;;;;;;;5446104;26;20431;-78
2024/05/02 05:17:36;;;;;;;2.10;1.50;;;;;;;;;;5416018;26;20005;-79
2024/05/02 05:20:02;;;;;;;1.55;1.20;;;;;;;;;;5447996;26;20071;-79
2024/05/02 05:22:27;;;;;;;3.17;1.40;;;;;;;;;;5413691;26;20094;-79
2024/05/02 05:24:52;;;;;;;3.15;1.45;;;;;;;;;;5415688;26;20017;-78
2024/05/02 05:27:20;;;;;;;3.55;1.60;;;;;;;;;;5446579;26;20061;-80
2024/05/02 05:29:45;;;;;;;1.83;1.40;;;;;;;;;;5415724;26;20348;-79
2024/05/02 05:32:11;;;;;;;2.00;1.52;;;;;;;;;;5445821;26;20105;-79
2024/05/02 05:34:36;;;;;;;1.98;1.70;;;;;;;;;;5416318;26;20015;-79
2024/05/02 05:37:01;;;;;;;11.55;4.15;;;;;;;;;;5414785;26;20096;-80
2024/05/02 05:39:27;;;;;;;4.85;2.70;;;;;;;;;;5416048;26;20040;-78
2024/05/02 05:41:52;;;;;;;10.15;3.10;;;;;;;;;;5411515;26;20079;-78
2024/05/02 05:44:18;;;;;;;5.75;3.00;;;;;;;;;;5446317;26;20079;-80
2024/05/02 05:46:44;;;;;;;5.40;3.40;;;;;;;;;;5444435;26;19999;-79
2024/05/02 05:49:09;;;;;;;8.02;3.85;;;;;;;;;;5418582;26;19995;-81
2024/05/02 05:51:35;;;;;;;4.72;2.70;;;;;;;;;;5449720;26;20014;-79
2024/05/02 05:54:00;;;;;;;3.83;2.92;;;;;;;;;;5434405;26;19999;-78
2024/05/02 05:56:26;;;;;;;16.33;4.38;;;;;;;;;;5392509;26;20000;-79
2024/05/02 05:58:51;;;;;;;5.85;2.85;;;;;;;;;;5448686;26;20014;-78
2024/05/02 06:01:26;;;;;;;4.13;2.72;;;;;;;;;;5437257;26;20011;-80
2024/05/02 06:03:51;;;;;;;8.52;3.78;;;;;;;;;;5410230;26;19996;-78
2024/05/02 06:06:19;;;;;;;5.47;3.95;;;;;;;;;;5410378;26;20009;-80
2024/05/02 06:08:45;;;;;;;5.70;3.17;;;;;;;;;;5435313;26;20330;-79
2024/05/02 06:11:13;;;;;;;5.68;3.65;;;;;;;;;;5440261;26;20027;-79
2024/05/02 06:13:39;;;;;;;4.03;2.83;;;;;;;;;;5414078;26;20021;-80
2024/05/02 06:16:05;;;;;;;4.53;3.00;;;;;;;;;;5435943;26;20004;-78
2024/05/02 06:18:30;;;;;;;9.07;3.95;;;;;;;;;;5434505;26;20000;-78
2024/05/02 06:20:56;;;;;;;6.10;4.03;;;;;;;;;;5401233;26;19998;-78
2024/05/02 06:23:21;;;;;;;5.25;3.90;;;;;;;;;;5450523;26;20075;-78
2024/05/02 06:25:46;;;;;;;3.75;2.90;;;;;;;;;;5410560;26;20015;-78
2024/05/02 06:28:12;;;;;;;5.30;3.97;;;;;;;;;;5432643;26;20443;-79
2024/05/02 06:30:38;;;;;;;4.47;3.08;;;;;;;;;;5448163;26;20010;-80
2024/05/02 06:33:07;;;;;;;4.35;3.08;;;;;;;;;;5446379;26;19995;-79
2024/05/02 06:35:32;;;;;;;4.10;2.42;;;;;;;;;;5442997;26;20450;-80
2024/05/02 06:38:01;;;;;;;5.63;3.55;;;;;;;;;;5449565;26;20003;-79
2024/05/02 06:40:27;;;;;;;5.00;2.67;;;;;;;;;;5415384;26;19999;-78
2024/05/02 06:42:59;;;;;;;3.88;3.33;;;;;;;;;;5446564;26;20003;-80
2024/05/02 06:45:25;;;;;;;7.63;4.43;;;;;;;;;;5417293;26;20446;-77
2024/05/02 06:47:54;;;;;;;4.72;2.83;;;;;;;;;;5448325;26;20439;-79
2024/05/02 06:50:19;;;;;;;11.60;3.78;;;;;;;;;;5447683;26;20424;-80
2024/05/02 06:52:45;;;;;;;6.97;3.90;;;;;;;;;;5443510;26;20007;-83
2024/05/02 06:55:12;;;;;;;5.40;3.53;;;;;;;;;;5420693;26;19999;-79
2024/05/02 06:57:38;;;;;;;6.60;3.67;;;;;;;;;;5451784;26;20925;-80
2024/05/02 07:00:04;;;;;;;4.22;2.38;;;;;;;;;;5450908;26;20006;-80
2024/05/02 07:02:32;;;;;;;3.60;2.20;;;;;;;;;;5419129;26;20319;-79
2024/05/02 07:05:00;;;;;;;3.33;2.10;;;;;;;;;;5447899;26;20392;-80
2024/05/02 07:07:26;;;;;;;6.47;2.28;;;;;;;;;;5450101;26;20015;-80
2024/05/02 07:09:52;;;;;;;9.05;3.15;;;;;;;;;;5449937;26;20014;-79
2024/05/02 07:12:18;;;;;;;4.97;2.58;;;;;;;;;;5418494;26;20044;-77
2024/05/02 07:14:43;;;;;;;2.80;1.65;;;;;;;;;;5418764;26;19999;-80
2024/05/02 07:17:09;;;;;;;3.92;1.58;;;;;;;;;;5451068;26;20043;-77
2024/05/02 07:19:34;;;;;;;1.55;1.45;;;;;;;;;;5449232;26;20035;-79
2024/05/02 07:22:05;;;;;;;1.70;1.25;;;;;;;;;;5418808;26;19999;-81
2024/05/02 07:24:30;;;;;;;3.10;2.40;;;;;;;;;;5450705;26;20011;-80
2024/05/02 07:26:56;;;;;;;2.90;1.85;;;;;;;;;;5450459;26;20346;-76
2024/05/02 07:29:21;;;;;;;5.53;2.95;;;;;;;;;;5446773;26;20584;-80
2024/05/02 07:31:47;;;;;;;2.53;2.30;;;;;;;;;;5446012;26;20010;-80
2024/05/02 07:34:16;;;;;;;3.78;2.67;;;;;;;;;;5447019;26;19991;-78
2024/05/02 07:36:42;;;;;;;5.18;3.20;;;;;;;;;;5417072;26;20100;-82
2024/05/02 07:39:07;;;;;;;4.65;3.40;;;;;;;;;;5450439;26;20367;-78
2024/05/02 07:41:33;;;;;;;3.35;2.83;;;;;;;;;;5417172;26;19999;-79
2024/05/02 07:43:58;;;;;;;3.60;2.58;;;;;;;;;;5417430;26;19995;-78
2024/05/02 07:46:23;;;;;;;5.20;3.35;;;;;;;;;;5418354;26;20071;-79
2024/05/02 07:48:49;;;;;;;5.57;4.05;;;;;;;;;;5448230;26;20039;-79
2024/05/02 07:51:15;;;;;;;6.15;3.10;;;;;;;;;;5447431;26;20052;-77
2024/05/02 07:53:41;;;;;;;6.32;3.92;;;;;;;;;;5449403;26;20006;-78
2024/05/02 07:56:07;;;;;;;3.22;2.75;;;;;;;;;;5449688;26;20006;-77
2024/05/02 07:58:35;;;;;;;5.13;3.58;;;;;;;;;;5447294;26;20020;-80
2024/05/02 08:01:01;;;;;;;4.47;2.92;;;;;;;;;;5448953;26;20011;-78
2024/05/02 08:03:27;;;;;;;5.65;3.55;;;;;;;;;;5448480;26;20081;-78
2024/05/02 08:05:52;;;;;;;4.43;2.38;;;;;;;;;;5447251;26;20002;-78
2024/05/02 08:08:17;;;;;;;4.32;2.28;;;;;;;;;;5448590;26;20362;-78
2024/05/02 08:10:43;;;;;;;2.67;1.70;;;;;;;;;;5417298;26;20022;-77
2024/05/02 08:13:12;;;;;;;2.38;1.63;;;;;;;;;;5415480;26;20013;-78
2024/05/02 08:15:38;;;;;;;1.38;1.10;;;;;;;;;;5417395;26;20003;-76
2024/05/02 08:18:05;;;;;;;2.78;1.88;;;;;;;;;;5417563;26;20534;-76
2024/05/02 08:20:30;;;;;;;2.65;1.75;;;;;;;;;;5444414;26;20455;-76
2024/05/02 08:22:56;;;;;;;2.67;2.08;;;;;;;;;;5447267;26;20079;-77
2024/05/02 08:25:21;;;;;;;1.58;1.45;;;;;;;;;;5447296;26;20034;-78
2024/05/02 08:27:46;;;;;;;2.67;1.88;;;;;;;;;;5444899;26;20002;-80
2024/05/02 08:30:12;;;;;;;2.58;1.70;;;;;;;;;;5443674;26;20005;-78
2024/05/02 08:32:37;;;;;;;2.47;1.65;;;;;;;;;;5447081;26;20003;-77
2024/05/02 08:35:03;;;;;;;5.93;1.58;;;;;;;;;;5444812;26;20007;-81
2024/05/02 08:37:29;;;;;;;2.33;1.48;;;;;;;;;;5415298;26;20040;-77
2024/05/02 08:39:55;;;;;;;1.50;1.30;;;;;;;;;;5414298;26;20482;-79
2024/05/02 08:42:21;;;;;;;2.67;1.70;;;;;;;;;;5414712;26;19999;-77
2024/05/02 08:44:47;;;;;;;1.13;0.93;;;;;;;;;;5448706;26;20058;-80
2024/05/02 08:47:14;;;;;;;0.93;0.70;;;;;;;;;;5446758;26;20005;-79
2024/05/02 08:49:40;;;;;;;1.15;0.95;;;;;;;;;;5416897;26;19995;-81
2024/05/02 08:52:07;;;;;;;2.28;0.90;;;;;;;;;;5448097;26;19998;-77
2024/05/02 08:54:34;;;;;;;1.58;1.20;;;;;;;;;;5446831;26;20049;-79
2024/05/02 08:57:02;;;;;;;1.58;1.25;;;;;;;;;;5472541;26;19999;-80
2024/05/02 08:59:29;;;;;;;1.63;1.00;;;;;;;;;;5416595;26;20006;-79
2024/05/02 09:01:58;;;;;;;1.00;0.90;;;;;;;;;;5416806;26;20009;-78
2024/05/02 09:04:24;;;;;;;1.13;1.00;;;;;;;;;;5447591;26;20013;-79
2024/05/02 09:06:50;;;;;;;1.42;1.13;;;;;;;;;;5446363;26;20002;-79
2024/05/02 09:09:16;;;;;;;1.75;1.35;;;;;;;;;;5447252;26;20011;-78
2024/05/02 09:11:54;;;;;;;1.75;1.10;;;;;;;;;;5443926;26;19999;-79
2024/05/02 09:14:21;;;;;;;3.95;1.13;;;;;;;;;;5440323;26;20007;-80
2024/05/02 09:16:50;;;;;;;1.90;1.27;;;;;;;;;;5416303;26;20017;-81
2024/05/02 09:19:17;;;;;;;8.05;1.00;;;;;;;;;;5447681;26;20459;-77
2024/05/02 09:21:43;;;;;;;2.17;1.35;;;;;;;;;;5447477;26;20003;-81
2024/05/02 09:24:09;;;;;;;1.70;1.23;;;;;;;;;;5415862;26;21685;-78
2024/05/02 09:26:35;;;;;;;3.30;1.20;;;;;;;;;;5412735;26;20079;-78
2024/05/02 09:29:05;;;;;;;2.03;1.42;;;;;;;;;;5416071;26;20007;-78
2024/05/02 09:31:34;;;;;;;1.48;1.15;;;;;;;;;;5447326;26;20006;-79
2024/05/02 09:34:04;;;;;;;2.20;1.20;;;;;;;;;;5447509;26;20014;-78
2024/05/02 09:36:30;;;;;;;2.10;1.42;;;;;;;;;;5446363;26;19999;-79
2024/05/02 09:38:58;;;;;;;1.90;1.30;;;;;;;;;;5446374;26;20007;-77
2024/05/02 09:41:27;;;;;;;1.75;1.25;;;;;;;;;;5448063;26;20027;-79
2024/05/02 09:44:08;;;;;;;2.10;1.50;;;;;;;;;;5414368;26;19995;-80
2024/05/02 09:46:34;;;;;;;2.25;1.45;;;;;;;;;;5445105;26;20349;-79
2024/05/02 09:49:00;;;;;;;2.15;0.90;;;;;;;;;;5448279;26;20017;-78
2024/05/02 09:51:27;;;;;;;5.57;1.13;;;;;;;;;;5447329;26;20434;-78
2024/05/02 09:53:53;;;;;;;0.90;0.82;;;;;;;;;;5448240;26;20013;-79
2024/05/02 09:56:21;;;;;;;3.17;1.13;;;;;;;;;;5417672;26;20013;-78
2024/05/02 09:58:48;;;;;;;2.38;1.63;;;;;;;;;;5451174;26;19995;-78
2024/05/02 10:01:15;;;;;;;3.20;1.65;;;;;;;;;;5418201;26;19995;-79
2024/05/02 10:03:42;;;;;;;1.70;1.30;;;;;;;;;;5419718;26;20315;-77
2024/05/02 10:06:07;;;;;;;1.88;1.33;;;;;;;;;;5451396;26;20007;-77
2024/05/02 10:08:39;;;;;;;1.73;1.33;;;;;;;;;;5408676;26;20075;-81
2024/05/02 10:11:56;;;;;;;;;;;;;;;;;;;;;
2024/05/02 10:14:31;;;;;;;1.38;1.05;;;;;;;;;;5447368;26;20006;-78
2024/05/02 10:17:07;;;;;;;1.38;1.10;;;;;;;;;;5414664;26;19999;-80
2024/05/02 10:19:51;;;;;;;2.85;1.40;;;;;;;;;;5418135;26;20022;-80
2024/05/02 10:22:36;;;;;;;1.80;1.10;;;;;;;;;;5415567;26;19999;-81
2024/05/02 10:25:04;;;;;;;2.88;1.45;;;;;;;;;;5411753;26;20451;-78
2024/05/02 10:27:56;;;;;;;1.48;0.77;;;;;;;;;;5413157;26;20005;-78
2024/05/02 10:30:30;;;;;;;1.00;0.82;;;;;;;;;;5427692;26;20571;-78
2024/05/02 10:36:05;;;;;;;1.58;1.10;;;;;;;;;;5431071;26;20010;-78
2024/05/02 10:38:51;;;;;;;1.73;1.25;;;;;;;;;;5451124;26;19999;-79
2024/05/02 10:41:20;;;;;;;0.98;0.88;;;;;;;;;;5446985;26;20079;-82
2024/05/02 10:43:50;;;;;;;3.67;1.27;;;;;;;;;;5419753;26;19999;-79
2024/05/02 10:46:16;;;;;;;2.92;0.98;;;;;;;;;;5421240;26;19999;-80
2024/05/02 10:48:47;;;;;;;1.60;1.10;;;;;;;;;;5417440;26;20029;-81
2024/05/02 10:51:13;;;;;;;1.05;0.93;;;;;;;;;;5399252;26;20003;-77
2024/05/02 10:53:45;;;;;;;4.18;1.23;;;;;;;;;;5419924;26;20003;-80
2024/05/02 10:59:29;;;;;;;1.30;1.17;;;;;;;;;;5424766;26;19996;-81
2024/05/02 11:02:07;;;;;;;1.45;1.20;;;;;;;;;;5395026;26;20075;-80
2024/05/02 11:04:39;;;;;;;2.20;1.40;;;;;;;;;;5424448;26;20003;-78
2024/05/02 11:07:08;;;;;;;4.20;1.42;;;;;;;;;;5397945;26;20033;-78
2024/05/02 11:09:51;;;;;;;1.52;1.15;;;;;;;;;;5414836;26;19996;-77
2024/05/02 11:12:28;;;;;;;1.70;1.30;;;;;;;;;;5388619;26;20009;-79
2024/05/02 11:14:54;;;;;;;2.95;1.30;;;;;;;;;;5424880;26;20428;-81
2024/05/02 11:17:34;;;;;;;2.25;1.15;;;;;;;;;;5439843;26;19999;-79
2024/05/02 11:20:01;;;;;;;7.53;1.30;;;;;;;;;;5412944;26;20430;-81
2024/05/02 11:22:45;;;;;;;2.45;1.42;;;;;;;;;;5414428;26;19999;-81
2024/05/02 11:25:22;;;;;;;2.22;1.20;;;;;;;;;;5393816;26;20004;-81
2024/05/02 11:27:55;;;;;;;0.70;0.70;;;;;;;;;;5425382;26;20019;-82
2024/05/02 11:30:41;;;;;;;3.78;1.50;;;;;;;;;;5406392;26;19999;-79
2024/05/02 11:33:34;;;;;;;1.00;0.75;;;;;;;;;;5419017;26;20003;-81
2024/05/02 11:36:16;;;;;;;1.25;0.80;;;;;;;;;;5415886;26;20441;-79
2024/05/02 11:38:55;;;;;;;;;;;;;;;;;;;;;
2024/05/02 11:41:24;;;;;;;1.45;1.08;;;;;;;;;;5430614;26;20014;-79
2024/05/02 11:43:59;;;;;;;;;;;;;;;;;;;;;
2024/05/02 11:49:25;;;;;;;6.07;1.42;;;;;;;;;;5391028;26;20068;-80
2024/05/02 11:51:50;;;;;;;1.30;1.05;;;;;;;;;;5442791;26;20438;-79
2024/05/02 11:54:16;;;;;;;1.45;1.30;;;;;;;;;;5447402;26;19999;-80
2024/05/02 11:56:42;;;;;;;1.75;1.27;;;;;;;;;;5449687;26;19998;-78
2024/05/02 11:59:07;;;;;;;1.40;1.23;;;;;;;;;;5446326;26;20014;-81
2024/05/02 12:01:33;;;;;;;1.25;1.05;;;;;;;;;;5416005;26;20639;-80
2024/05/02 12:03:58;;;;;;;1.40;1.17;;;;;;;;;;5428487;26;20003;-80
2024/05/02 12:06:24;;;;;;;2.10;1.20;;;;;;;;;;5416728;26;20017;-80
2024/05/02 12:08:49;;;;;;;1.13;1.00;;;;;;;;;;5447364;26;19999;-79
2024/05/02 12:11:15;;;;;;;0.82;0.80;;;;;;;;;;5414419;26;20464;-81
2024/05/02 12:13:40;;;;;;;1.45;1.10;;;;;;;;;;5415693;26;20481;-79
2024/05/02 12:16:06;;;;;;;1.77;1.00;;;;;;;;;;5447201;26;19998;-82
2024/05/02 12:18:36;;;;;;;2.15;1.25;;;;;;;;;;5446900;26;19999;-80
2024/05/02 12:21:01;;;;;;;1.70;1.30;;;;;;;;;;5445769;26;20014;-80
2024/05/02 12:23:26;;;;;;;3.88;0.77;;;;;;;;;;5449117;26;20060;-79
2024/05/02 12:25:52;;;;;;;1.40;1.17;;;;;;;;;;5444891;26;20002;-81
2024/05/02 12:28:17;;;;;;;2.03;1.02;;;;;;;;;;5415728;26;19999;-80
2024/05/02 12:30:43;;;;;;;1.50;1.25;;;;;;;;;;5439795;26;20003;-79
2024/05/02 12:33:08;;;;;;;2.20;1.10;;;;;;;;;;5444984;26;20010;-79
2024/05/02 12:35:34;;;;;;;1.70;1.00;;;;;;;;;;5448902;26;20013;-79
2024/05/02 12:37:59;;;;;;;1.58;1.05;;;;;;;;;;5446358;26;20003;-80
2024/05/02 12:40:25;;;;;;;1.67;0.98;;;;;;;;;;5447426;26;20007;-81
2024/05/02 12:42:50;;;;;;;2.17;1.40;;;;;;;;;;5447574;26;20018;-80
2024/05/02 12:45:16;;;;;;;1.23;0.80;;;;;;;;;;5414855;26;19995;-79
2024/05/02 12:47:41;;;;;;;0.50;0.50;;;;;;;;;;5448098;26;19999;-79
2024/05/02 12:50:07;;;;;;;1.92;0.82;;;;;;;;;;5446117;26;20031;-80
2024/05/02 12:52:33;;;;;;;1.63;0.77;;;;;;;;;;5445284;26;19995;-80
2024/05/02 12:54:58;;;;;;;1.95;0.80;;;;;;;;;;5448317;26;20006;-79
2024/05/02 12:57:24;;;;;;;1.05;0.88;;;;;;;;;;5445694;26;20013;-79
2024/05/02 12:59:50;;;;;;;1.60;1.10;;;;;;;;;;5447488;26;20013;-79
2024/05/02 13:02:15;;;;;;;1.50;0.60;;;;;;;;;;5446101;26;19994;-82
2024/05/02 13:04:41;;;;;;;0.80;0.80;;;;;;;;;;5447698;26;20023;-78
2024/05/02 13:07:06;;;;;;;0.77;0.75;;;;;;;;;;5447773;26;20006;-77
2024/05/02 13:09:33;;;;;;;1.00;0.50;;;;;;;;;;5413770;26;19995;-78
2024/05/02 13:12:01;;;;;;;1.10;0.63;;;;;;;;;;5447803;26;20327;-79
2024/05/02 13:14:27;;;;;;;2.00;1.00;;;;;;;;;;5416720;26;20078;-80
2024/05/02 13:16:54;;;;;;;0.90;0.73;;;;;;;;;;5447661;26;20891;-79
2024/05/02 13:19:20;;;;;;;5.03;0.73;;;;;;;;;;5448609;26;19999;-79
2024/05/02 13:21:45;;;;;;;1.88;0.95;;;;;;;;;;5446373;26;20071;-80
2024/05/02 13:24:11;;;;;;;1.25;0.60;;;;;;;;;;5447156;26;19999;-80
2024/05/02 13:26:36;;;;;;;3.15;0.65;;;;;;;;;;5415060;26;20021;-81
2024/05/02 13:29:03;;;;;;;1.10;0.70;;;;;;;;;;5445816;26;20021;-81
2024/05/02 13:31:28;;;;;;;0.32;0.32;;;;;;;;;;5415968;26;20798;-81
2024/05/02 13:33:53;;;;;;;0.73;0.70;;;;;;;;;;5415196;26;20111;-80
2024/05/02 13:36:19;;;;;;;0.85;0.60;;;;;;;;;;5447998;26;20002;-80
2024/05/02 13:38:45;;;;;;;1.02;0.73;;;;;;;;;;5416344;26;20022;-79
2024/05/02 13:41:10;;;;;;;0.63;0.50;;;;;;;;;;5447770;26;20017;-80
2024/05/02 13:43:36;;;;;;;0.38;0.38;;;;;;;;;;5416281;26;20003;-80
2024/05/02 13:46:03;;;;;;;0.63;0.63;;;;;;;;;;5415474;26;20017;-79
2024/05/02 13:48:29;;;;;;;0.80;0.63;;;;;;;;;;5444339;26;20362;-79
2024/05/02 13:50:55;;;;;;;0.63;0.60;;;;;;;;;;5446975;26;20017;-78
2024/05/02 13:53:20;;;;;;;0.77;0.70;;;;;;;;;;5414752;26;20013;-77
2024/05/02 13:55:46;;;;;;;0.43;0.40;;;;;;;;;;5446536;26;20074;-79
2024/05/02 13:58:12;;;;;;;1.05;0.70;;;;;;;;;;5445358;26;20829;-80
2024/05/02 14:00:38;;;;;;;0.73;0.60;;;;;;;;;;5415117;26;20335;-78
2024/05/02 14:03:03;;;;;;;0.50;0.50;;;;;;;;;;5444764;26;19999;-77
2024/05/02 14:05:29;;;;;;;0.77;0.63;;;;;;;;;;5447642;26;19995;-79
2024/05/02 14:07:55;;;;;;;8.63;0.90;;;;;;;;;;5414692;26;20331;-82
2024/05/02 14:10:20;;;;;;;0.80;0.50;;;;;;;;;;5447830;26;20014;-79
2024/05/02 14:12:46;;;;;;;0.60;0.50;;;;;;;;;;5447091;26;20002;-79
2024/05/02 14:15:11;;;;;;;0.70;0.52;;;;;;;;;;5412594;26;20075;-79
2024/05/02 14:17:39;;;;;;;1.15;0.55;;;;;;;;;;5411602;26;20097;-80
2024/05/02 14:20:06;;;;;;;1.02;0.68;;;;;;;;;;5414714;26;20021;-81
2024/05/02 14:22:32;;;;;;;1.33;0.60;;;;;;;;;;5446383;26;20022;-81
2024/05/02 14:24:57;;;;;;;2.20;0.55;;;;;;;;;;5444072;26;19998;-81
2024/05/02 14:27:23;;;;;;;0.43;0.40;;;;;;;;;;5444569;26;19999;-81
2024/05/02 14:29:48;;;;;;;0.40;0.38;;;;;;;;;;5445227;26;20015;-81
2024/05/02 14:32:14;;;;;;;1.42;0.40;;;;;;;;;;5443886;26;20331;-80
2024/05/02 14:34:41;;;;;;;2.65;0.60;;;;;;;;;;5444213;26;20009;-79
2024/05/02 14:37:07;;;;;;;1.02;0.70;;;;;;;;;;5446046;26;20438;-82
2024/05/02 14:39:32;;;;;;;0.60;0.60;;;;;;;;;;5416972;26;20079;-79
2024/05/02 14:41:58;;;;;;;3.35;0.47;;;;;;;;;;5448501;26;20011;-78
2024/05/02 14:44:27;;;;;;;0.50;0.38;;;;;;;;;;5450066;26;20003;-79
2024/05/02 14:46:53;;;;;;;0.40;0.40;;;;;;;;;;5447138;26;20018;-81
2024/05/02 14:49:18;;;;;;;1.35;0.60;;;;;;;;;;5420078;26;20236;-78
2024/05/02 14:51:44;;;;;;;0.40;0.40;;;;;;;;;;5414729;26;20047;-78
2024/05/02 14:54:09;;;;;;;0.55;0.40;;;;;;;;;;5446555;26;19999;-79
2024/05/02 14:56:34;;;;;;;0.28;0.20;;;;;;;;;;5442993;26;19995;-81
2024/05/02 14:59:00;;;;;;;0.85;0.57;;;;;;;;;;5414900;26;19995;-79
2024/05/02 15:01:25;;;;;;;0.35;0.32;;;;;;;;;;5413347;26;20455;-81
2024/05/02 15:03:51;;;;;;;1.23;0.70;;;;;;;;;;5447080;26;20332;-79
2024/05/02 15:06:16;;;;;;;0.45;0.35;;;;;;;;;;5446285;26;20007;-79
2024/05/02 15:08:41;;;;;;;0.22;0.22;;;;;;;;;;5449172;26;20076;-79
2024/05/02 15:11:07;;;;;;;0.38;0.28;;;;;;;;;;5448627;26;20466;-78
2024/05/02 15:13:32;;;;;;;0.50;0.38;;;;;;;;;;5448536;26;20084;-75
2024/05/02 15:15:58;;;;;;;1.38;0.73;;;;;;;;;;5435939;26;20806;-78
2024/05/02 15:18:23;;;;;;;0.43;0.35;;;;;;;;;;5448755;26;20002;-81
2024/05/02 15:20:52;;;;;;;0.35;0.35;;;;;;;;;;5436440;26;20031;-79
2024/05/02 15:23:18;;;;;;;1.77;0.52;;;;;;;;;;5444781;26;20017;-79
2024/05/02 15:25:43;;;;;;;0.77;0.45;;;;;;;;;;5445593;26;20002;-80
2024/05/02 15:28:09;;;;;;;0.52;0.30;;;;;;;;;;5449022;26;20013;-81
2024/05/02 15:30:34;;;;;;;3.00;0.52;;;;;;;;;;5447364;26;20306;-80
2024/05/02 15:33:00;;;;;;;1.08;0.25;;;;;;;;;;5442963;26;19995;-79
2024/05/02 15:35:25;;;;;;;0.70;0.40;;;;;;;;;;5420767;26;19996;-80
2024/05/02 15:37:52;;;;;;;2.00;0.50;;;;;;;;;;5426130;26;20000;-78
2024/05/02 15:40:17;;;;;;;0.30;0.30;;;;;;;;;;5440144;26;20003;-78
2024/05/02 15:42:43;;;;;;;0.85;0.45;;;;;;;;;;5417069;26;20017;-78
2024/05/02 15:45:08;;;;;;;0.70;0.43;;;;;;;;;;5416412;26;20006;-80
2024/05/02 15:47:34;;;;;;;0.30;0.30;;;;;;;;;;5446219;26;20002;-77
2024/05/02 15:50:00;;;;;;;0.17;0.17;;;;;;;;;;5447944;26;20014;-78
2024/05/02 15:52:26;;;;;;;2.35;0.80;;;;;;;;;;5447874;26;20030;-79
2024/05/02 15:54:51;;;;;;;0.60;0.50;;;;;;;;;;5447323;26;20075;-79
2024/05/02 15:57:17;;;;;;;0.57;0.40;;;;;;;;;;5417842;26;20352;-79
2024/05/02 15:59:42;;;;;;;0.35;0.30;;;;;;;;;;5417336;26;20322;-79
2024/05/02 16:02:08;;;;;;;1.75;0.73;;;;;;;;;;5447595;26;19999;-78
2024/05/02 16:04:33;;;;;;;1.17;0.40;;;;;;;;;;5416682;26;20064;-79
2024/05/02 16:06:59;;;;;;;0.88;0.30;;;;;;;;;;5448627;26;20071;-79
2024/05/02 16:09:26;;;;;;;0.25;0.20;;;;;;;;;;5416392;26;20013;-80
2024/05/02 16:11:51;;;;;;;2.13;0.17;;;;;;;;;;5445945;26;20439;-80
2024/05/02 16:14:16;;;;;;;5.20;0.57;;;;;;;;;;5446261;26;20009;-81
2024/05/02 16:16:42;;;;;;;0.63;0.45;;;;;;;;;;5447458;26;19994;-78
2024/05/02 16:19:07;;;;;;;1.60;0.30;;;;;;;;;;5417261;26;20331;-78
2024/05/02 16:21:33;;;;;;;0.35;0.15;;;;;;;;;;5445040;26;19999;-78
2024/05/02 16:23:58;;;;;;;0.73;0.40;;;;;;;;;;5444087;26;20328;-79
2024/05/02 16:26:23;;;;;;;0.75;0.50;;;;;;;;;;5414350;26;20017;-78
2024/05/02 16:28:49;;;;;;;0.73;0.50;;;;;;;;;;5444320;26;20050;-78
2024/05/02 16:31:14;;;;;;;1.75;1.15;;;;;;;;;;5465072;26;20003;-81
2024/05/02 16:33:40;;;;;;;1.20;0.40;;;;;;;;;;5447963;26;19999;-80
2024/05/02 16:36:06;;;;;;;1.92;1.20;;;;;;;;;;5449925;26;20130;-79
2024/05/02 16:38:31;;;;;;;0.98;0.55;;;;;;;;;;5446915;26;20009;-81
2024/05/02 16:40:57;;;;;;;3.92;0.98;;;;;;;;;;5416685;26;20314;-79
2024/05/02 16:43:22;;;;;;;0.93;0.60;;;;;;;;;;5414421;26;20308;-80
2024/05/02 16:45:47;;;;;;;0.63;0.63;;;;;;;;;;5412137;26;20013;-82
2024/05/02 16:48:13;;;;;;;0.40;0.40;;;;;;;;;;5447260;26;20043;-81